Time;durP1;ratioP1;P1;durP2;ratioP2;P2;SDS_P1;SDS_P2;PMS_P1;PMS_P2;Temp;Humidity;BMP_temperature;BMP_pressure;BME280_temperature;BME280_humidity;BME280_pressure;Samples;Min_cycle;Max_cycle;Signal;HPM_P1;HPM_P2
2022/12/23 00:03:57;;;;;;;17.57;10.30;;;6.00;99.90;;;;;;8248403;28;20191;-70
2022/12/23 00:07:58;;;;;;;12.80;10.07;;;5.90;99.90;;;;;;8269603;28;20210;-70
2022/12/23 00:16:18;;;;;;;15.53;10.80;;;5.90;99.90;;;;;;8263187;28;20245;-70
2022/12/23 00:20:19;;;;;;;15.67;10.83;;;5.80;99.90;;;;;;8265508;28;20191;-70
2022/12/23 00:24:19;;;;;;;16.70;10.40;;;5.80;99.90;;;;;;8263219;28;20195;-70
2022/12/23 00:28:22;;;;;;;14.13;9.47;;;5.70;99.90;;;;;;8266641;28;20222;-70
2022/12/23 00:32:23;;;;;;;14.27;9.03;;;5.60;99.90;;;;;;8261311;28;20207;-70
2022/12/23 00:36:27;;;;;;;15.13;9.73;;;5.50;99.90;;;;;;8266121;28;20211;-70
2022/12/23 00:44:47;;;;;;;11.20;8.10;;;5.30;99.90;;;;;;8265505;28;20214;-70
2022/12/23 00:53:07;;;;;;;11.77;8.37;;;5.20;99.90;;;;;;8272099;28;20203;-70
2022/12/23 00:57:08;;;;;;;11.27;8.23;;;5.10;99.90;;;;;;8253467;28;20195;-70
2022/12/23 01:05:37;;;;;;;12.13;8.13;;;4.90;99.90;;;;;;8268135;28;20226;-70
2022/12/23 01:09:38;;;;;;;12.80;8.40;;;5.00;99.90;;;;;;8273217;28;20207;-70
2022/12/23 01:13:39;;;;;;;15.97;10.47;;;5.00;99.90;;;;;;8271999;28;20192;-71
2022/12/23 01:17:40;;;;;;;17.43;11.53;;;5.10;99.90;;;;;;8268289;28;20318;-70
2022/12/23 01:21:41;;;;;;;14.87;9.73;;;5.20;99.90;;;;;;8272728;28;20196;-71
2022/12/23 01:25:41;;;;;;;13.40;8.83;;;5.20;99.90;;;;;;8274375;28;20216;-71
2022/12/23 01:29:42;;;;;;;8.93;6.73;;;5.10;99.90;;;;;;8273219;28;20203;-70
2022/12/23 01:33:44;;;;;;;13.87;9.07;;;5.00;99.90;;;;;;8269023;28;20219;-71
2022/12/23 01:37:45;;;;;;;12.93;8.57;;;5.00;99.90;;;;;;8270519;28;20194;-71
2022/12/23 01:46:05;;;;;;;10.57;7.43;;;5.10;99.90;;;;;;8274708;28;20249;-70
2022/12/23 01:50:15;;;;;;;11.17;7.57;;;5.20;99.90;;;;;;8253114;28;20183;-70
2022/12/23 01:54:16;;;;;;;12.33;7.83;;;5.20;99.90;;;;;;8272881;28;20183;-70
2022/12/23 01:58:32;;;;;;;11.53;8.03;;;5.10;99.90;;;;;;8253010;28;20187;-68
2022/12/23 02:11:32;;;;;;;14.70;9.37;;;5.20;99.90;;;;;;8271217;28;20201;-69
2022/12/23 02:20:13;;;;;;;15.60;10.07;;;5.30;99.90;;;;;;8271678;28;20194;-68
2022/12/23 02:24:45;;;;;;;14.13;10.40;;;5.40;99.90;;;;;;8266301;28;20191;-69
2022/12/23 02:29:23;;;;;;;16.57;10.93;;;5.50;99.90;;;;;;8269317;28;20222;-69
2022/12/23 02:33:32;;;;;;;14.53;10.93;;;5.60;99.90;;;;;;8271970;28;20223;-69
2022/12/23 02:37:56;;;;;;;13.03;9.07;;;5.70;99.90;;;;;;8267020;28;20184;-69
2022/12/23 02:42:05;;;;;;;17.07;10.87;;;5.70;99.90;;;;;;8265663;28;20260;-69
2022/12/23 02:46:19;;;;;;;12.77;9.17;;;5.80;99.90;;;;;;8266208;28;20280;-69
2022/12/23 02:50:24;;;;;;;12.73;8.93;;;5.90;99.90;;;;;;8267110;28;20195;-69
2022/12/23 02:54:31;;;;;;;12.70;9.17;;;5.90;99.90;;;;;;8267270;28;20179;-69
2022/12/23 02:58:37;;;;;;;12.77;8.37;;;6.00;99.90;;;;;;8270346;28;20199;-69
2022/12/23 03:02:40;;;;;;;10.37;7.37;;;6.00;99.90;;;;;;8265861;28;20198;-68
2022/12/23 03:06:43;;;;;;;9.53;7.47;;;6.00;99.90;;;;;;8250949;28;20318;-68
2022/12/23 03:10:56;;;;;;;9.63;7.33;;;6.10;99.90;;;;;;8271390;28;20183;-71
2022/12/23 03:15:17;;;;;;;10.43;6.80;;;6.10;99.90;;;;;;8265866;28;20206;-71
2022/12/23 03:19:36;;;;;;;11.17;8.10;;;6.10;99.90;;;;;;8253382;28;20203;-68
2022/12/23 03:24:12;;;;;;;9.90;7.63;;;6.10;99.90;;;;;;8251504;28;20186;-70
2022/12/23 03:28:20;;;;;;;10.17;7.60;;;6.10;99.90;;;;;;8266647;28;20235;-69
2022/12/23 03:32:23;;;;;;;10.67;7.83;;;6.10;99.90;;;;;;8265043;28;20218;-69
2022/12/23 03:36:30;;;;;;;8.50;6.47;;;6.00;99.90;;;;;;8266919;28;20225;-69
2022/12/23 03:40:45;;;;;;;10.77;6.40;;;6.00;99.90;;;;;;8265453;28;20195;-69
2022/12/23 03:44:49;;;;;;;7.60;5.27;;;6.10;99.90;;;;;;8265657;28;20195;-69
2022/12/23 03:48:57;;;;;;;6.47;5.10;;;6.20;99.90;;;;;;8249516;28;20219;-69
2022/12/23 03:53:05;;;;;;;7.53;5.17;;;6.20;99.90;;;;;;8267423;28;20215;-69
2022/12/23 03:57:07;;;;;;;6.60;4.70;;;6.30;99.90;;;;;;8266726;28;20192;-69
2022/12/23 04:01:17;;;;;;;6.53;5.10;;;6.30;99.90;;;;;;8267532;28;20515;-69
2022/12/23 04:05:29;;;;;;;8.30;5.10;;;6.30;99.90;;;;;;8263929;28;20191;-69
2022/12/23 04:09:29;;;;;;;6.27;4.80;;;6.40;99.90;;;;;;8269354;28;20187;-69
2022/12/23 04:13:31;;;;;;;6.80;5.20;;;6.40;99.90;;;;;;8264605;28;20226;-70
2022/12/23 04:17:32;;;;;;;7.00;4.90;;;6.40;99.90;;;;;;8267867;28;20194;-69
2022/12/23 04:21:33;;;;;;;5.63;4.10;;;6.40;99.90;;;;;;8252006;28;20240;-70
2022/12/23 04:25:33;;;;;;;6.20;4.57;;;6.50;99.90;;;;;;8255210;28;20243;-69
2022/12/23 04:29:34;;;;;;;6.23;4.67;;;6.50;99.90;;;;;;8261067;28;20255;-69
2022/12/23 04:33:35;;;;;;;7.07;4.80;;;6.50;99.90;;;;;;8269054;28;20250;-69
2022/12/23 04:37:36;;;;;;;9.23;6.30;;;6.50;99.90;;;;;;8254461;28;20195;-69
2022/12/23 04:41:37;;;;;;;6.97;5.30;;;6.50;99.90;;;;;;8269876;28;20187;-69
2022/12/23 04:45:38;;;;;;;8.77;5.57;;;6.50;99.90;;;;;;8273070;28;20280;-69
2022/12/23 04:49:39;;;;;;;8.07;4.97;;;6.50;99.90;;;;;;8270886;28;20187;-68
2022/12/23 04:53:39;;;;;;;6.17;5.17;;;6.60;99.90;;;;;;8274193;28;20424;-69
2022/12/23 04:57:40;;;;;;;5.97;4.80;;;6.60;99.90;;;;;;8273519;28;20325;-69
2022/12/23 05:01:41;;;;;;;6.70;5.23;;;6.70;99.90;;;;;;8269636;28;20187;-69
2022/12/23 05:05:43;;;;;;;8.27;5.67;;;6.70;99.90;;;;;;8252832;28;20242;-68
2022/12/23 05:09:44;;;;;;;7.13;4.87;;;6.80;99.90;;;;;;8269929;28;20187;-68
2022/12/23 05:13:44;;;;;;;7.30;5.07;;;6.80;99.90;;;;;;8278500;28;20746;-68
2022/12/23 05:17:45;;;;;;;9.67;5.03;;;6.90;99.90;;;;;;8265623;28;20199;-68
2022/12/23 05:21:46;;;;;;;9.37;4.90;;;6.90;99.90;;;;;;8275815;28;20234;-68
2022/12/23 05:25:52;;;;;;;7.30;4.93;;;7.00;99.90;;;;;;8280450;28;20211;-68
2022/12/23 05:29:52;;;;;;;6.03;4.63;;;7.10;99.90;;;;;;8277839;28;20184;-68
2022/12/23 05:33:53;;;;;;;7.30;4.83;;;7.20;99.90;;;;;;8277529;28;20242;-69
2022/12/23 05:37:54;;;;;;;7.37;4.33;;;7.20;99.90;;;;;;8275519;28;20194;-69
2022/12/23 05:41:55;;;;;;;8.23;4.33;;;7.30;99.90;;;;;;8280746;28;20213;-69
2022/12/23 05:45:56;;;;;;;6.87;4.20;;;7.40;99.90;;;;;;8277729;28;20219;-69
2022/12/23 05:49:56;;;;;;;6.17;4.10;;;7.40;99.90;;;;;;8280293;28;20188;-69
2022/12/23 05:53:58;;;;;;;4.97;3.93;;;7.50;99.90;;;;;;8278927;28;20179;-70
2022/12/23 05:57:58;;;;;;;8.30;4.50;;;7.60;99.90;;;;;;8269362;28;20252;-69
2022/12/23 06:01:59;;;;;;;8.23;4.20;;;7.60;99.90;;;;;;8273775;28;20195;-69
2022/12/23 06:06:00;;;;;;;6.37;4.20;;;7.70;99.90;;;;;;8276208;28;20207;-68
2022/12/23 06:10:01;;;;;;;7.70;3.87;;;7.70;99.90;;;;;;8285922;28;20210;-70
2022/12/23 06:14:02;;;;;;;5.87;3.30;;;7.70;99.90;;;;;;8281973;28;20188;-69
2022/12/23 06:18:03;;;;;;;5.90;3.50;;;7.80;99.90;;;;;;8285175;28;20203;-69
2022/12/23 06:22:04;;;;;;;4.73;3.47;;;7.80;99.90;;;;;;8283146;28;20278;-68
2022/12/23 06:26:05;;;;;;;6.40;3.33;;;7.80;99.90;;;;;;8275191;28;20212;-68
2022/12/23 06:30:07;;;;;;;5.10;3.10;;;7.80;99.90;;;;;;8264718;28;20250;-69
2022/12/23 06:34:08;;;;;;;4.17;2.87;;;7.80;99.90;;;;;;8271617;28;20242;-69
2022/12/23 06:38:08;;;;;;;4.73;3.00;;;7.80;99.90;;;;;;8283291;28;20195;-68
2022/12/23 06:42:09;;;;;;;5.60;2.80;;;7.80;99.90;;;;;;8272262;28;20199;-69
2022/12/23 06:46:11;;;;;;;3.97;2.67;;;7.80;99.90;;;;;;8268540;28;20246;-68
2022/12/23 06:50:11;;;;;;;3.53;2.40;;;7.80;99.90;;;;;;8267074;28;20209;-69
2022/12/23 06:54:14;;;;;;;4.17;2.90;;;7.80;99.90;;;;;;8263804;28;20199;-69
2022/12/23 06:58:14;;;;;;;4.40;2.50;;;7.80;99.90;;;;;;8273949;28;20199;-68
2022/12/23 07:02:15;;;;;;;4.27;2.60;;;7.90;99.90;;;;;;8274842;28;20206;-68
2022/12/23 07:06:16;;;;;;;4.27;3.50;;;7.90;99.90;;;;;;8280068;28;20215;-69
2022/12/23 07:10:17;;;;;;;6.17;4.07;;;7.90;99.90;;;;;;8276701;28;20195;-69
2022/12/23 07:14:18;;;;;;;9.23;4.70;;;8.00;99.90;;;;;;8267473;28;20183;-69
2022/12/23 07:18:21;;;;;;;5.90;4.40;;;8.00;99.90;;;;;;8254883;28;20235;-68
2022/12/23 07:22:22;;;;;;;5.37;3.87;;;8.00;99.90;;;;;;8263191;28;20295;-69
2022/12/23 07:26:23;;;;;;;4.30;3.60;;;8.10;99.90;;;;;;8272502;28;20262;-69
2022/12/23 07:30:24;;;;;;;6.10;3.77;;;8.10;99.90;;;;;;8271956;28;20383;-68
2022/12/23 07:34:25;;;;;;;4.20;3.33;;;8.10;99.90;;;;;;8262419;28;20230;-69
2022/12/23 07:38:26;;;;;;;4.50;3.13;;;8.10;99.90;;;;;;8280162;28;20187;-68
2022/12/23 07:42:27;;;;;;;3.30;2.70;;;8.10;99.90;;;;;;8261730;28;20190;-68
2022/12/23 07:46:28;;;;;;;4.13;2.70;;;8.20;99.90;;;;;;8282763;28;20286;-68
2022/12/23 07:50:29;;;;;;;4.00;2.97;;;8.20;99.90;;;;;;8268599;28;20245;-69
2022/12/23 07:54:30;;;;;;;4.33;3.93;;;8.30;99.90;;;;;;8280999;28;20250;-69
2022/12/23 07:58:30;;;;;;;3.67;3.23;;;8.30;99.90;;;;;;8281066;28;20187;-69
2022/12/23 08:02:31;;;;;;;5.67;3.63;;;8.30;99.90;;;;;;8268975;28;20196;-69
2022/12/23 08:06:35;;;;;;;7.20;3.43;;;8.30;99.90;;;;;;8281769;28;20258;-69
2022/12/23 08:10:36;;;;;;;7.23;3.70;;;8.30;99.90;;;;;;8270360;28;20242;-69
2022/12/23 08:14:37;;;;;;;4.13;3.07;;;8.30;99.90;;;;;;8265065;28;20187;-68
2022/12/23 08:18:39;;;;;;;4.13;2.80;;;8.30;99.90;;;;;;8263533;28;20223;-68
2022/12/23 08:22:40;;;;;;;5.17;3.00;;;8.40;99.90;;;;;;8264582;28;20183;-69
2022/12/23 08:26:41;;;;;;;7.23;2.87;;;8.50;99.90;;;;;;8263870;28;20266;-68
2022/12/23 08:30:42;;;;;;;5.23;3.03;;;8.60;99.90;;;;;;8265248;28;20188;-69
2022/12/23 08:34:43;;;;;;;4.53;2.70;;;8.70;99.90;;;;;;8273138;28;20226;-69
2022/12/23 08:38:44;;;;;;;5.17;3.23;;;8.80;99.90;;;;;;8285011;28;20207;-68
2022/12/23 08:42:45;;;;;;;3.43;3.00;;;8.80;99.90;;;;;;8265067;28;20207;-68
2022/12/23 08:46:46;;;;;;;9.70;2.97;;;8.90;99.90;;;;;;8286520;28;20253;-68
2022/12/23 08:50:49;;;;;;;4.27;3.10;;;9.00;99.90;;;;;;8278896;28;20207;-68
2022/12/23 08:54:49;;;;;;;4.40;3.30;;;9.10;99.90;;;;;;8280127;28;20188;-68
2022/12/23 08:58:53;;;;;;;5.77;3.47;;;9.10;99.90;;;;;;8252059;28;20227;-69
2022/12/23 09:02:53;;;;;;;5.40;4.00;;;9.10;99.90;;;;;;8270113;28;20200;-68
2022/12/23 09:06:54;;;;;;;5.23;3.80;;;9.10;99.90;;;;;;8272087;28;20203;-67
2022/12/23 09:10:55;;;;;;;5.43;2.87;;;9.00;99.90;;;;;;8274686;28;20185;-68
2022/12/23 09:14:56;;;;;;;6.67;4.07;;;9.00;99.90;;;;;;8292426;28;20188;-68
2022/12/23 09:18:57;;;;;;;7.50;4.27;;;9.00;99.90;;;;;;8276252;28;20183;-68
2022/12/23 09:23:00;;;;;;;5.90;4.00;;;9.00;99.90;;;;;;8289032;28;20209;-69
2022/12/23 09:27:01;;;;;;;7.73;3.93;;;9.10;99.90;;;;;;8292589;28;20200;-68
2022/12/23 09:31:10;;;;;;;5.27;3.60;;;9.00;99.90;;;;;;8285685;28;20198;-68
2022/12/23 09:35:11;;;;;;;7.97;4.37;;;9.00;99.90;;;;;;8273762;28;20220;-69
2022/12/23 09:39:12;;;;;;;5.63;4.27;;;9.10;99.90;;;;;;8285009;28;20188;-69
2022/12/23 09:43:33;;;;;;;4.47;3.63;;;9.20;99.90;;;;;;8272506;28;20230;-68
2022/12/23 09:47:34;;;;;;;5.50;3.57;;;9.20;99.90;;;;;;8272092;28;20211;-69
2022/12/23 09:51:35;;;;;;;5.20;3.93;;;9.30;99.90;;;;;;8270398;28;20284;-69
2022/12/23 09:55:39;;;;;;;5.00;3.47;;;9.30;99.90;;;;;;8273913;28;20416;-68
2022/12/23 09:59:58;;;;;;;5.50;3.90;;;9.20;99.90;;;;;;8276289;28;20335;-69
2022/12/23 10:04:22;;;;;;;5.53;3.97;;;9.20;99.90;;;;;;8270827;28;20188;-69
2022/12/23 10:08:33;;;;;;;6.40;4.03;;;9.20;99.90;;;;;;8270631;28;20227;-69
2022/12/23 10:12:39;;;;;;;5.10;3.83;;;9.20;99.90;;;;;;8269324;28;20190;-69
2022/12/23 10:16:58;;;;;;;5.90;4.50;;;9.30;99.90;;;;;;8271489;28;20185;-68
2022/12/23 10:21:05;;;;;;;4.37;3.80;;;9.30;99.90;;;;;;8253809;28;20191;-70
2022/12/23 10:25:41;;;;;;;5.03;3.80;;;9.40;99.90;;;;;;8266542;28;20595;-69
2022/12/23 10:29:42;;;;;;;4.80;4.30;;;9.40;99.90;;;;;;8259808;28;20192;-69
2022/12/23 10:33:58;;;;;;;5.70;4.10;;;9.60;99.90;;;;;;8272187;28;20259;-70
2022/12/23 10:38:29;;;;;;;8.77;4.20;;;9.80;99.90;;;;;;8275731;28;20175;-68
2022/12/23 10:43:01;;;;;;;4.37;3.83;;;9.80;99.90;;;;;;8265133;28;20194;-69
2022/12/23 10:47:37;;;;;;;5.67;3.80;;;9.70;99.90;;;;;;8226738;28;20212;-68
2022/12/23 10:51:49;;;;;;;4.27;3.53;;;9.60;99.90;;;;;;8266456;28;20226;-68
2022/12/23 10:55:50;;;;;;;6.17;4.20;;;9.50;99.90;;;;;;8268607;28;20201;-70
2022/12/23 10:59:51;;;;;;;5.47;4.00;;;9.60;99.90;;;;;;8276596;28;20189;-68
2022/12/23 11:04:01;;;;;;;5.40;3.83;;;9.60;99.90;;;;;;8260145;28;20359;-69
2022/12/23 11:08:02;;;;;;;4.47;4.00;;;9.70;99.90;;;;;;8260458;28;20263;-69
2022/12/23 11:12:06;;;;;;;5.37;3.43;;;9.80;99.90;;;;;;8267069;28;20217;-71
2022/12/23 11:16:21;;;;;;;3.10;2.80;;;9.90;99.90;;;;;;8256118;28;20194;-69
2022/12/23 11:20:22;;;;;;;3.97;2.73;;;10.00;99.90;;;;;;8266410;28;20182;-69
2022/12/23 11:24:25;;;;;;;4.40;3.07;;;10.20;99.90;;;;;;8249104;28;20202;-69
2022/12/23 11:28:27;;;;;;;4.43;2.57;;;10.20;99.90;;;;;;8250863;28;20217;-70
2022/12/23 11:32:28;;;;;;;3.47;2.63;;;10.10;99.90;;;;;;8265555;28;20252;-70
2022/12/23 11:36:31;;;;;;;4.60;3.17;;;10.00;99.90;;;;;;8247319;28;20212;-70
2022/12/23 11:40:37;;;;;;;4.53;2.70;;;10.00;99.90;;;;;;8249035;28;20264;-69
2022/12/23 11:44:45;;;;;;;3.70;3.07;;;9.90;99.90;;;;;;8264917;28;20194;-70
2022/12/23 11:48:46;;;;;;;3.60;2.63;;;9.90;99.90;;;;;;8264081;28;20215;-70
2022/12/23 11:52:53;;;;;;;4.60;2.40;;;9.90;99.90;;;;;;8261901;28;20221;-69
2022/12/23 11:56:55;;;;;;;2.70;2.13;;;10.00;99.90;;;;;;8259614;28;20194;-71
2022/12/23 12:00:58;;;;;;;3.30;2.60;;;10.00;99.90;;;;;;8249613;28;20276;-71
2022/12/23 12:05:18;;;;;;;3.43;2.70;;;10.10;99.90;;;;;;8248972;28;20218;-70
2022/12/23 12:09:20;;;;;;;4.47;2.43;;;10.10;99.90;;;;;;8260859;28;20210;-69
2022/12/23 12:13:24;;;;;;;3.47;2.50;;;10.10;99.90;;;;;;8264425;28;20191;-69
2022/12/23 12:17:37;;;;;;;3.33;2.60;;;10.10;99.90;;;;;;8264782;28;20190;-69
2022/12/23 12:21:38;;;;;;;4.13;2.77;;;10.00;99.90;;;;;;8261709;28;20454;-70
2022/12/23 12:25:57;;;;;;;3.40;2.60;;;10.00;99.90;;;;;;8263818;28;20197;-70
2022/12/23 12:30:03;;;;;;;3.90;2.60;;;9.90;99.90;;;;;;8264222;28;20191;-69
2022/12/23 12:34:13;;;;;;;4.20;2.93;;;9.80;99.90;;;;;;8260310;28;21297;-69
2022/12/23 12:38:22;;;;;;;3.47;2.53;;;9.80;99.90;;;;;;8265777;28;20202;-69
2022/12/23 12:42:40;;;;;;;3.87;2.90;;;9.80;99.90;;;;;;8266250;28;20258;-69
2022/12/23 12:46:54;;;;;;;5.00;2.60;;;9.70;99.90;;;;;;8258591;28;20218;-69
2022/12/23 12:51:26;;;;;;;3.70;2.93;;;9.60;99.90;;;;;;8271962;28;20194;-70
2022/12/23 12:55:36;;;;;;;4.83;3.67;;;9.60;99.90;;;;;;8271201;28;20298;-70
2022/12/23 12:59:39;;;;;;;5.80;4.00;;;9.60;99.90;;;;;;8271992;28;20191;-68
2022/12/23 13:04:14;;;;;;;6.50;3.60;;;9.50;99.90;;;;;;8257653;28;20200;-70
2022/12/23 13:08:14;;;;;;;6.57;3.90;;;9.40;99.90;;;;;;8242744;28;20283;-69
2022/12/23 13:12:33;;;;;;;3.87;3.20;;;9.40;99.90;;;;;;8272316;28;20193;-69
2022/12/23 13:17:35;;;;;;;3.73;3.33;;;9.40;99.90;;;;;;8268927;28;20185;-68
2022/12/23 13:21:55;;;;;;;4.10;3.10;;;9.40;99.90;;;;;;8202448;28;20198;-69
2022/12/23 13:26:03;;;;;;;4.73;3.10;;;9.40;99.90;;;;;;8269664;28;20227;-69
2022/12/23 13:30:13;;;;;;;4.83;3.37;;;9.30;99.90;;;;;;8271810;28;20185;-70
2022/12/23 13:34:54;;;;;;;4.17;3.10;;;9.30;99.90;;;;;;8268138;28;20216;-69
2022/12/23 13:39:31;;;;;;;3.70;2.90;;;9.30;99.90;;;;;;8272856;28;20200;-70
2022/12/23 13:43:38;;;;;;;4.80;3.57;;;9.30;99.90;;;;;;8271161;28;20190;-69
2022/12/23 13:47:41;;;;;;;4.10;3.33;;;9.30;99.90;;;;;;8273335;28;20263;-69
2022/12/23 13:52:14;;;;;;;4.47;3.70;;;9.30;99.90;;;;;;8269119;28;20230;-68
2022/12/23 13:56:40;;;;;;;4.87;3.60;;;9.30;99.90;;;;;;8256608;28;20292;-69
2022/12/23 14:00:41;;;;;;;3.93;3.40;;;9.30;99.90;;;;;;8253694;28;20192;-70
2022/12/23 14:04:58;;;;;;;4.33;3.67;;;9.30;99.90;;;;;;8267380;28;20205;-69
2022/12/23 14:08:59;;;;;;;4.63;3.90;;;9.30;99.90;;;;;;8272405;28;20236;-70
2022/12/23 14:13:06;;;;;;;5.93;3.70;;;9.30;99.90;;;;;;8260005;28;20186;-70
2022/12/23 14:17:25;;;;;;;7.50;4.10;;;9.30;99.90;;;;;;8250819;28;20194;-70
2022/12/23 14:21:40;;;;;;;4.73;3.93;;;9.30;99.90;;;;;;8263734;28;20198;-69
2022/12/23 14:25:59;;;;;;;4.90;4.07;;;9.20;99.90;;;;;;8254215;28;20192;-69
2022/12/23 14:30:14;;;;;;;5.90;4.47;;;9.20;99.90;;;;;;8270608;28;20186;-69
2022/12/23 14:34:21;;;;;;;8.27;4.93;;;9.10;99.90;;;;;;8255189;28;20217;-70
2022/12/23 14:38:29;;;;;;;7.13;5.47;;;9.10;99.90;;;;;;8268674;28;20206;-71
2022/12/23 14:42:42;;;;;;;10.50;8.60;;;9.10;99.90;;;;;;8265987;28;20559;-70
2022/12/23 14:46:43;;;;;;;6.93;5.63;;;8.90;99.90;;;;;;8249849;28;20209;-71
2022/12/23 14:51:20;;;;;;;10.40;7.30;;;8.80;99.90;;;;;;8266106;28;20182;-70
2022/12/23 14:55:28;;;;;;;9.47;6.43;;;8.70;99.90;;;;;;8248249;28;20183;-71
2022/12/23 14:59:37;;;;;;;10.93;6.47;;;8.70;99.90;;;;;;8265721;28;20278;-70
2022/12/23 15:03:45;;;;;;;6.83;5.77;;;8.70;99.90;;;;;;8267050;28;20265;-70
2022/12/23 15:07:46;;;;;;;7.20;4.90;;;8.70;99.90;;;;;;8269200;28;20225;-70
2022/12/23 15:11:47;;;;;;;5.97;5.03;;;8.70;99.90;;;;;;8248546;28;20269;-70
2022/12/23 15:15:54;;;;;;;5.17;4.40;;;8.80;99.90;;;;;;8250880;28;20188;-70
2022/12/23 15:20:23;;;;;;;5.60;4.63;;;8.80;99.90;;;;;;8283907;28;20189;-69
2022/12/23 15:24:25;;;;;;;5.63;4.63;;;8.80;99.90;;;;;;8302495;28;20181;-69
2022/12/23 15:28:38;;;;;;;7.57;5.77;;;8.80;99.90;;;;;;8274992;28;20230;-69
2022/12/23 15:32:44;;;;;;;6.83;4.97;;;8.70;99.90;;;;;;8291467;28;20196;-68
2022/12/23 15:36:46;;;;;;;7.47;4.83;;;8.70;99.90;;;;;;8290584;28;20277;-69
2022/12/23 15:41:04;;;;;;;5.90;4.97;;;8.60;99.90;;;;;;8290132;28;20184;-69
2022/12/23 15:45:36;;;;;;;6.37;4.17;;;8.60;99.90;;;;;;8285767;28;20192;-69
2022/12/23 15:49:37;;;;;;;5.10;4.27;;;8.60;99.90;;;;;;8206127;28;20228;-69
2022/12/23 15:53:39;;;;;;;6.43;4.17;;;8.60;99.90;;;;;;8270342;28;20190;-69
2022/12/23 15:57:43;;;;;;;4.57;3.70;;;8.60;99.90;;;;;;8279137;28;20271;-69
2022/12/23 16:01:44;;;;;;;7.40;4.00;;;8.50;99.90;;;;;;8278378;28;20171;-69
2022/12/23 16:05:45;;;;;;;4.87;3.57;;;8.50;99.90;;;;;;8276954;28;20191;-69
2022/12/23 16:09:53;;;;;;;4.30;3.57;;;8.50;99.90;;;;;;8276371;28;20245;-69
2022/12/23 16:14:00;;;;;;;4.23;3.03;;;8.40;99.90;;;;;;8292921;28;20181;-68
2022/12/23 16:18:20;;;;;;;4.30;2.70;;;8.40;99.90;;;;;;8279653;28;20181;-69
2022/12/23 16:22:30;;;;;;;3.83;2.73;;;8.40;99.90;;;;;;8283464;28;20179;-69
2022/12/23 16:26:30;;;;;;;3.33;2.70;;;8.40;99.90;;;;;;8268727;28;20199;-69
2022/12/23 16:30:37;;;;;;;3.87;3.47;;;8.40;99.90;;;;;;8273569;28;20184;-69
2022/12/23 16:34:37;;;;;;;3.57;3.27;;;8.50;99.90;;;;;;8264665;28;20227;-69
2022/12/23 16:38:39;;;;;;;5.40;3.57;;;8.50;99.90;;;;;;8280082;28;20211;-70
2022/12/23 16:42:40;;;;;;;4.50;3.63;;;8.50;99.90;;;;;;8270360;28;20179;-69
2022/12/23 16:46:43;;;;;;;2.70;2.47;;;8.50;99.90;;;;;;8270135;28;20207;-69
2022/12/23 16:50:45;;;;;;;3.30;2.97;;;8.50;99.90;;;;;;8277061;28;20183;-69
2022/12/23 16:54:46;;;;;;;4.37;3.20;;;8.50;99.90;;;;;;8284219;28;20191;-69
2022/12/23 16:58:47;;;;;;;4.23;3.30;;;8.50;99.90;;;;;;8274763;28;20180;-69
2022/12/23 17:02:48;;;;;;;3.70;3.17;;;8.50;99.90;;;;;;8287601;28;20270;-68
2022/12/23 17:06:49;;;;;;;3.70;3.00;;;8.50;99.90;;;;;;8291150;28;20198;-68
2022/12/23 17:10:51;;;;;;;3.43;3.10;;;8.50;99.90;;;;;;8274893;28;20199;-68
2022/12/23 17:14:52;;;;;;;3.87;3.43;;;8.50;99.90;;;;;;8278039;28;20181;-67
2022/12/23 17:18:53;;;;;;;5.40;4.50;;;8.50;99.90;;;;;;8287110;28;20182;-67
2022/12/23 17:22:58;;;;;;;5.03;4.53;;;8.50;99.90;;;;;;8257336;28;20188;-67
2022/12/23 17:26:59;;;;;;;6.23;5.53;;;8.40;99.90;;;;;;8292110;28;20204;-67
2022/12/23 17:31:00;;;;;;;7.40;6.07;;;8.40;99.90;;;;;;8286155;28;20177;-67
2022/12/23 17:35:01;;;;;;;6.97;5.03;;;8.40;99.90;;;;;;8280911;28;20308;-67
2022/12/23 17:39:02;;;;;;;7.67;6.47;;;8.50;99.90;;;;;;8281389;28;20190;-67
2022/12/23 17:43:03;;;;;;;7.03;6.13;;;8.50;99.90;;;;;;8290898;28;20184;-68
2022/12/23 17:47:12;;;;;;;7.53;5.87;;;8.50;99.90;;;;;;8279985;28;20209;-68
2022/12/23 17:51:19;;;;;;;6.90;5.53;;;8.50;99.90;;;;;;8293114;28;20199;-68
2022/12/23 17:55:23;;;;;;;7.63;6.03;;;8.50;99.90;;;;;;8290947;28;20188;-67
2022/12/23 17:59:23;;;;;;;8.40;5.93;;;8.50;99.90;;;;;;8286920;28;20185;-68
2022/12/23 18:03:24;;;;;;;7.77;5.80;;;8.50;99.90;;;;;;8275675;28;20184;-68
2022/12/23 18:07:26;;;;;;;7.93;6.23;;;8.40;99.90;;;;;;8275542;28;20208;-68
2022/12/23 18:11:40;;;;;;;9.03;7.23;;;8.40;99.90;;;;;;8281669;28;20234;-68
2022/12/23 18:15:42;;;;;;;10.47;8.00;;;8.40;99.90;;;;;;8278023;28;20200;-68
2022/12/23 18:19:44;;;;;;;11.27;8.40;;;8.30;99.90;;;;;;8270958;28;20184;-68
2022/12/23 18:23:45;;;;;;;11.83;8.83;;;8.30;99.90;;;;;;8275695;28;20175;-68
2022/12/23 18:27:48;;;;;;;11.47;9.10;;;8.30;99.90;;;;;;8277394;28;20333;-68
2022/12/23 18:31:49;;;;;;;12.40;9.13;;;8.20;99.90;;;;;;8273057;28;20272;-68
2022/12/23 18:35:50;;;;;;;12.83;9.53;;;8.20;99.90;;;;;;8279437;28;20220;-69
2022/12/23 18:39:51;;;;;;;12.77;10.40;;;8.20;99.90;;;;;;8274416;28;20188;-69
2022/12/23 18:43:53;;;;;;;12.10;9.50;;;8.20;99.90;;;;;;8278173;28;20174;-69
2022/12/23 18:47:54;;;;;;;12.57;9.53;;;8.20;99.90;;;;;;8273839;28;20191;-69
2022/12/23 18:51:55;;;;;;;14.87;10.13;;;8.10;99.90;;;;;;8281318;28;20188;-66
2022/12/23 18:55:56;;;;;;;16.47;13.40;;;8.10;99.90;;;;;;8278632;28;20171;-68
2022/12/23 18:59:57;;;;;;;21.37;16.23;;;8.00;99.90;;;;;;8291606;28;20184;-69
2022/12/23 19:03:58;;;;;;;18.83;14.90;;;8.00;99.90;;;;;;8264938;28;20206;-69
2022/12/23 19:08:00;;;;;;;19.87;14.90;;;8.00;99.90;;;;;;8279934;28;20227;-69
2022/12/23 19:12:01;;;;;;;18.63;14.07;;;8.00;99.90;;;;;;8265690;28;20191;-69
2022/12/23 19:16:02;;;;;;;19.07;14.17;;;7.90;99.90;;;;;;8274146;28;20183;-69
2022/12/23 19:20:06;;;;;;;21.90;15.60;;;7.90;99.90;;;;;;8276082;28;20179;-69
2022/12/23 19:24:07;;;;;;;19.83;14.87;;;7.90;99.90;;;;;;8277068;28;20242;-69
2022/12/23 19:28:08;;;;;;;18.47;12.97;;;8.00;99.90;;;;;;8272859;28;20196;-71
2022/12/23 19:32:09;;;;;;;20.53;14.77;;;7.90;99.90;;;;;;8260196;28;20180;-71
2022/12/23 19:36:16;;;;;;;18.40;13.30;;;7.90;99.90;;;;;;8254827;28;20217;-71
2022/12/23 19:40:17;;;;;;;15.17;11.87;;;7.90;99.90;;;;;;8249416;28;20194;-71
2022/12/23 19:44:18;;;;;;;14.57;11.73;;;7.90;99.90;;;;;;8265035;28;20222;-71
2022/12/23 19:48:19;;;;;;;14.30;11.50;;;7.80;99.90;;;;;;8248270;28;20219;-72
2022/12/23 19:52:20;;;;;;;16.50;12.60;;;7.80;99.90;;;;;;8247180;28;20191;-71
2022/12/23 19:56:21;;;;;;;18.20;13.27;;;7.80;99.90;;;;;;8266971;28;20191;-71
2022/12/23 20:00:22;;;;;;;24.77;16.17;;;7.70;99.90;;;;;;8247623;28;20183;-71
2022/12/23 20:04:26;;;;;;;23.37;17.03;;;7.70;99.90;;;;;;8261865;28;20187;-71
2022/12/23 20:08:27;;;;;;;22.00;15.90;;;7.70;99.90;;;;;;8262970;28;20217;-71
2022/12/23 20:12:28;;;;;;;22.67;17.13;;;7.70;99.90;;;;;;8251786;28;20210;-71
2022/12/23 20:16:30;;;;;;;22.43;16.77;;;7.70;99.90;;;;;;8269930;28;20395;-71
2022/12/23 20:20:31;;;;;;;21.60;16.13;;;7.70;99.90;;;;;;8251745;28;20187;-71
2022/12/23 20:24:34;;;;;;;22.60;16.93;;;7.70;99.90;;;;;;8250967;28;20188;-71
2022/12/23 20:28:35;;;;;;;23.23;16.30;;;7.70;99.90;;;;;;8265665;28;20211;-71
2022/12/23 20:32:36;;;;;;;25.10;19.40;;;7.70;99.90;;;;;;8266400;28;20238;-71
2022/12/23 20:36:37;;;;;;;24.33;17.77;;;7.70;99.90;;;;;;8260501;28;20203;-71
2022/12/23 20:40:38;;;;;;;23.53;17.93;;;7.70;99.90;;;;;;8247145;28;21666;-71
2022/12/23 20:44:39;;;;;;;24.80;17.07;;;7.70;99.90;;;;;;8262339;28;20249;-71
2022/12/23 20:48:41;;;;;;;22.87;17.37;;;7.70;99.90;;;;;;8265580;28;20507;-71
2022/12/23 20:52:42;;;;;;;24.87;18.03;;;7.60;99.90;;;;;;8265873;28;20199;-71
2022/12/23 20:56:43;;;;;;;26.03;19.00;;;7.60;99.90;;;;;;8264741;28;20325;-71
2022/12/23 21:00:44;;;;;;;24.60;18.90;;;7.60;99.90;;;;;;8267130;28;20476;-72
2022/12/23 21:04:45;;;;;;;30.93;21.40;;;7.60;99.90;;;;;;8267996;28;20675;-72
2022/12/23 21:08:46;;;;;;;27.23;19.17;;;7.50;99.90;;;;;;8272243;28;20238;-72
2022/12/23 21:12:47;;;;;;;28.30;19.80;;;7.50;99.90;;;;;;8270069;28;20198;-71
2022/12/23 21:16:48;;;;;;;27.90;20.57;;;7.50;99.90;;;;;;8250907;28;20211;-71
2022/12/23 21:20:48;;;;;;;30.13;21.23;;;7.50;99.90;;;;;;8248875;28;104667;-71
2022/12/23 21:24:49;;;;;;;26.73;19.60;;;7.40;99.90;;;;;;8300654;28;20569;-71
2022/12/23 21:28:52;;;;;;;28.43;21.20;;;7.40;99.90;;;;;;8305046;28;20291;-72
2022/12/23 21:32:58;;;;;;;29.30;21.57;;;7.40;99.90;;;;;;8289011;28;20206;-72
2022/12/23 21:36:59;;;;;;;27.57;20.80;;;7.30;99.90;;;;;;8288175;28;20209;-71
2022/12/23 21:41:06;;;;;;;24.80;19.17;;;7.30;99.90;;;;;;8284242;28;20186;-71
2022/12/23 21:45:08;;;;;;;26.97;19.13;;;7.30;99.90;;;;;;8303935;28;20191;-71
2022/12/23 21:49:09;;;;;;;26.53;20.10;;;7.30;99.90;;;;;;8285696;28;20210;-71
2022/12/23 21:53:10;;;;;;;25.07;19.43;;;7.40;99.90;;;;;;8288487;28;20474;-71
2022/12/23 21:57:11;;;;;;;26.17;18.70;;;7.40;99.90;;;;;;8305647;28;20244;-71
2022/12/23 22:01:15;;;;;;;27.17;20.60;;;7.40;99.90;;;;;;8287577;28;20206;-71